createdAt,value
2023-04-04T00:02:40.575Z,12.73
2023-04-04T00:05:38.492Z,12.57
2023-04-04T00:08:36.278Z,11.85
2023-04-04T00:11:34.305Z,13.05
2023-04-04T00:14:32.995Z,12.65
2023-04-04T00:17:30.893Z,12.40
2023-04-04T00:20:28.779Z,13.00
2023-04-04T00:23:27.513Z,12.82
2023-04-04T00:26:27.224Z,13.30
2023-04-04T00:29:25.140Z,15.32
2023-04-04T00:32:23.159Z,14.18
2023-04-04T00:35:21.182Z,13.77
2023-04-04T00:38:18.910Z,15.27
2023-04-04T00:41:18.006Z,13.60
2023-04-04T00:44:16.791Z,13.32
2023-04-04T00:47:14.610Z,13.45
2023-04-04T00:50:12.924Z,14.25
2023-04-04T00:53:10.755Z,14.65
2023-04-04T00:56:10.428Z,14.20
2023-04-04T00:59:08.935Z,15.18
2023-04-04T01:02:07.324Z,14.55
2023-04-04T01:05:05.310Z,13.85
2023-04-04T01:08:03.167Z,15.65
2023-04-04T01:11:00.964Z,13.55
2023-04-04T01:13:58.702Z,16.40
2023-04-04T01:16:56.905Z,14.82
2023-04-04T01:20:16.739Z,14.85
2023-04-04T01:23:15.277Z,13.52
2023-04-04T01:26:13.119Z,14.95
2023-04-04T01:29:10.943Z,13.50
2023-04-04T01:32:14.269Z,12.98
2023-04-04T01:38:33.396Z,10.90
2023-04-04T01:41:34.707Z,10.20
2023-04-04T01:44:33.169Z,10.30
2023-04-04T01:47:40.309Z,9.77
2023-04-04T01:50:38.586Z,9.70
2023-04-04T01:53:36.683Z,10.38
2023-04-04T01:56:35.032Z,9.95
2023-04-04T01:59:33.057Z,10.98
2023-04-04T02:02:30.978Z,10.60
2023-04-04T02:05:29.333Z,11.40
2023-04-04T02:08:27.148Z,14.43
2023-04-04T02:11:24.839Z,17.00
2023-04-04T02:14:22.703Z,15.77
2023-04-04T02:17:20.628Z,15.30
2023-04-04T02:20:19.955Z,16.77
2023-04-04T02:23:17.617Z,17.17
2023-04-04T02:26:15.422Z,16.65
2023-04-04T02:29:13.097Z,17.33
2023-04-04T02:32:10.848Z,16.35
2023-04-04T02:35:08.918Z,17.02
2023-04-04T02:38:06.701Z,16.80
2023-04-04T02:41:04.565Z,17.02
2023-04-04T02:44:02.395Z,17.05
2023-04-04T02:46:59.991Z,16.88
2023-04-04T02:49:57.767Z,17.75
2023-04-04T02:53:01.797Z,18.73
2023-04-04T02:55:59.730Z,19.98
2023-04-04T02:58:57.667Z,20.80
2023-04-04T03:01:55.725Z,18.13
2023-04-04T03:04:53.989Z,19.15
2023-04-04T03:07:57.272Z,18.17
2023-04-04T03:13:53.087Z,19.15
2023-04-04T03:16:51.000Z,21.77
2023-04-04T03:19:48.776Z,19.48
2023-04-04T03:22:47.294Z,19.27
2023-04-04T03:25:45.175Z,20.35
2023-04-04T03:28:43.093Z,20.05
2023-04-04T03:31:42.064Z,19.98
2023-04-04T03:34:40.119Z,20.60
2023-04-04T03:37:37.939Z,19.50
2023-04-04T03:40:37.092Z,19.73
2023-04-04T03:43:35.366Z,19.95
2023-04-04T03:46:34.107Z,19.98
2023-04-04T03:49:34.079Z,20.02
2023-04-04T03:52:31.740Z,19.90
2023-04-04T03:55:29.711Z,20.33
2023-04-04T03:58:29.293Z,20.42
2023-04-04T04:01:27.774Z,19.80
2023-04-04T04:04:25.564Z,20.17
2023-04-04T04:07:23.417Z,19.92
2023-04-04T04:10:21.091Z,21.08
2023-04-04T04:13:18.813Z,21.67
2023-04-04T04:16:16.540Z,22.90
2023-04-04T04:19:14.348Z,21.55
2023-04-04T04:22:12.108Z,23.95
2023-04-04T04:25:12.758Z,23.23
2023-04-04T04:28:10.405Z,24.80
2023-04-04T04:31:09.901Z,23.40
2023-04-04T04:34:09.370Z,23.70
2023-04-04T04:37:07.293Z,22.42
2023-04-04T04:40:05.396Z,23.20
2023-04-04T04:43:03.565Z,22.70
2023-04-04T04:46:01.649Z,22.40
2023-04-04T04:48:59.468Z,23.67
2023-04-04T04:51:57.365Z,20.90
2023-04-04T04:54:56.505Z,21.67
2023-04-04T04:57:54.205Z,22.55
2023-04-04T05:00:57.443Z,21.00
2023-04-04T05:06:52.851Z,20.45
2023-04-04T05:09:51.987Z,21.08
2023-04-04T05:12:49.906Z,21.90
2023-04-04T05:15:48.671Z,23.42
2023-04-04T05:18:46.570Z,24.52
2023-04-04T05:21:44.479Z,24.60
2023-04-04T05:24:43.700Z,21.25
2023-04-04T05:27:41.939Z,21.38
2023-04-04T05:30:40.946Z,23.58
2023-04-04T05:33:39.052Z,23.23
2023-04-04T05:36:37.595Z,21.85
2023-04-04T05:39:35.490Z,23.33
2023-04-04T05:42:33.442Z,23.95
2023-04-04T05:45:31.999Z,26.10
2023-04-04T05:48:30.766Z,24.25
2023-04-04T05:51:28.414Z,24.52
2023-04-04T05:54:26.814Z,25.10
2023-04-04T05:57:25.358Z,26.77
2023-04-04T06:00:23.493Z,25.00
2023-04-04T06:03:22.205Z,26.50
2023-04-04T06:06:20.242Z,26.40
2023-04-04T06:09:17.924Z,27.90
2023-04-04T06:12:15.694Z,25.65
2023-04-04T06:15:13.476Z,27.05
2023-04-04T06:18:11.695Z,28.00
2023-04-04T06:21:09.424Z,26.88
2023-04-04T06:24:07.432Z,27.83
2023-04-04T06:27:05.201Z,27.70
2023-04-04T06:30:03.802Z,27.27
2023-04-04T06:33:01.774Z,28.98
2023-04-04T06:35:59.624Z,27.42
2023-04-04T06:38:57.551Z,27.52
2023-04-04T06:41:58.184Z,28.20
2023-04-04T06:44:55.849Z,27.55
2023-04-04T06:47:54.974Z,25.45
2023-04-04T06:50:52.707Z,27.17
2023-04-04T06:53:50.958Z,24.63
2023-04-04T06:56:48.612Z,26.35
2023-04-04T06:59:46.537Z,25.00
2023-04-04T07:02:44.288Z,25.08
2023-04-04T07:05:42.264Z,23.98
2023-04-04T07:08:40.063Z,24.77
2023-04-04T07:14:49.112Z,24.42
2023-04-04T07:17:47.071Z,26.27
2023-04-04T07:20:47.121Z,26.65
2023-04-04T07:23:44.935Z,23.02
2023-04-04T07:26:42.717Z,24.40
2023-04-04T07:29:40.461Z,22.80
2023-04-04T07:32:39.426Z,22.55
2023-04-04T07:35:37.777Z,22.60
2023-04-04T07:38:35.675Z,23.73
2023-04-04T07:41:34.091Z,22.13
2023-04-04T07:44:32.140Z,20.00
2023-04-04T07:47:29.929Z,21.38
2023-04-04T07:50:27.674Z,20.38
2023-04-04T07:53:25.464Z,18.13
2023-04-04T07:56:23.354Z,19.42
2023-04-04T07:59:21.606Z,18.25
2023-04-04T08:02:19.499Z,16.33
2023-04-04T08:05:17.529Z,18.08
2023-04-04T08:08:15.287Z,17.58
2023-04-04T08:11:13.114Z,19.45
2023-04-04T08:14:12.519Z,18.05
2023-04-04T08:17:10.353Z,17.77
2023-04-04T08:20:08.350Z,16.30
2023-04-04T08:23:06.153Z,17.33
2023-04-04T08:26:03.971Z,16.30
2023-04-04T08:29:02.631Z,16.33
2023-04-04T08:32:01.197Z,14.73
2023-04-04T08:34:59.919Z,14.05
2023-04-04T08:37:58.014Z,15.70
2023-04-04T08:40:55.838Z,15.15
2023-04-04T08:43:55.675Z,13.13
2023-04-04T08:46:54.922Z,15.85
2023-04-04T08:49:55.207Z,10.90
2023-04-04T08:52:54.171Z,11.98
2023-04-04T08:55:52.617Z,11.73
2023-04-04T08:58:50.544Z,13.43
2023-04-04T09:01:48.872Z,12.00
2023-04-04T09:05:02.304Z,11.32
2023-04-04T09:08:05.534Z,13.60
2023-04-04T09:11:05.034Z,9.60
2023-04-04T09:14:19.762Z,9.07
2023-04-04T09:17:17.860Z,8.70
2023-04-04T09:20:35.238Z,12.15
2023-04-04T09:23:33.228Z,9.75
2023-04-04T09:26:48.468Z,9.68
2023-04-04T09:29:46.320Z,8.65
2023-04-04T09:32:44.604Z,9.02
2023-04-04T09:35:48.160Z,8.65
2023-04-04T09:38:47.399Z,8.98
2023-04-04T09:41:46.634Z,9.73
2023-04-04T09:44:45.252Z,9.05
2023-04-04T09:47:43.582Z,8.70
2023-04-04T09:50:47.515Z,11.00
2023-04-04T09:53:49.290Z,9.13
2023-04-04T09:56:47.423Z,8.85
2023-04-04T09:59:47.657Z,10.30
2023-04-04T10:02:50.365Z,9.25
2023-04-04T10:05:48.657Z,9.10
2023-04-04T10:08:46.593Z,8.98
2023-04-04T10:11:44.737Z,11.05
2023-04-04T10:14:43.144Z,9.90
2023-04-04T10:17:42.625Z,9.75
2023-04-04T10:20:40.996Z,10.07
2023-04-04T10:23:39.593Z,11.65
2023-04-04T10:26:37.709Z,8.73
2023-04-04T10:29:35.917Z,9.45
2023-04-04T10:32:46.254Z,9.90
2023-04-04T10:35:48.835Z,11.57
2023-04-04T10:38:55.973Z,10.70
2023-04-04T10:41:54.327Z,11.77
2023-04-04T10:44:52.659Z,10.77
2023-04-04T10:47:52.251Z,10.45
2023-04-04T10:50:50.701Z,10.45
2023-04-04T10:53:49.106Z,10.60
2023-04-04T10:56:47.753Z,9.50
2023-04-04T11:00:08.223Z,9.90
2023-04-04T11:03:06.064Z,9.73
2023-04-04T11:06:04.967Z,9.38
2023-04-04T11:09:02.981Z,9.65
2023-04-04T11:12:21.111Z,10.05
2023-04-04T11:15:22.370Z,9.88
2023-04-04T11:18:33.414Z,9.75
2023-04-04T11:21:33.658Z,9.25
2023-04-04T11:24:31.663Z,10.27
2023-04-04T11:27:31.158Z,9.75
2023-04-04T11:30:29.058Z,12.25
2023-04-04T11:33:29.008Z,11.07
2023-04-04T11:36:50.244Z,11.80
2023-04-04T11:39:57.847Z,11.30
2023-04-04T11:42:56.913Z,11.25
2023-04-04T11:45:56.039Z,9.90
2023-04-04T11:48:54.575Z,11.13
2023-04-04T11:51:53.173Z,11.45
2023-04-04T11:54:51.171Z,9.60
2023-04-04T11:57:51.887Z,9.50
2023-04-04T12:00:51.047Z,10.27
2023-04-04T12:03:50.125Z,10.63
2023-04-04T12:06:52.237Z,10.50
2023-04-04T12:09:49.920Z,10.83
2023-04-04T12:12:47.652Z,10.68
2023-04-04T12:15:48.446Z,10.20
2023-04-04T12:18:47.014Z,12.55
2023-04-04T12:21:46.245Z,10.98
2023-04-04T12:24:44.139Z,10.60
2023-04-04T12:27:42.522Z,10.43
2023-04-04T12:30:40.724Z,10.07
2023-04-04T12:33:38.502Z,10.82
2023-04-04T12:36:40.058Z,10.27
2023-04-04T12:39:49.392Z,10.10
2023-04-04T12:42:49.947Z,10.27
2023-04-04T12:45:50.303Z,10.00
2023-04-04T12:48:50.534Z,12.48
2023-04-04T12:51:48.274Z,10.77
2023-04-04T12:54:50.810Z,11.90
2023-04-04T12:57:52.015Z,11.57
2023-04-04T13:00:55.031Z,11.18
2023-04-04T13:06:51.383Z,11.52
2023-04-04T13:09:56.273Z,11.27
2023-04-04T13:12:59.460Z,10.73
2023-04-04T13:15:57.207Z,11.35
2023-04-04T13:18:55.357Z,12.20
2023-04-04T13:21:54.667Z,11.82
2023-04-04T13:24:52.408Z,13.05
2023-04-04T13:27:50.164Z,12.73
2023-04-04T13:30:49.989Z,11.80
2023-04-04T13:33:47.777Z,12.88
2023-04-04T13:36:45.604Z,13.77
2023-04-04T13:39:43.304Z,13.57
2023-04-04T13:42:41.087Z,14.93
2023-04-04T13:45:39.368Z,14.55
2023-04-04T13:48:37.461Z,16.35
2023-04-04T13:51:35.122Z,17.17
2023-04-04T13:54:32.896Z,14.52
2023-04-04T13:57:30.570Z,18.13
2023-04-04T14:03:50.069Z,18.05
2023-04-04T14:06:49.942Z,17.55
2023-04-04T14:09:47.916Z,17.40
2023-04-04T14:12:45.787Z,21.15
2023-04-04T14:15:43.777Z,22.83
2023-04-04T14:18:41.952Z,20.05
2023-04-04T14:21:39.716Z,19.85
2023-04-04T14:24:37.524Z,19.85
2023-04-04T14:27:35.473Z,21.60
2023-04-04T14:30:33.292Z,21.73
2023-04-04T14:33:31.356Z,19.63
2023-04-04T14:36:29.377Z,19.30
2023-04-04T14:39:27.253Z,19.88
2023-04-04T14:42:25.197Z,19.75
2023-04-04T14:45:24.113Z,19.40
2023-04-04T14:48:21.921Z,20.13
2023-04-04T14:51:22.534Z,19.77
2023-04-04T14:54:20.232Z,19.60
2023-04-04T14:57:18.327Z,19.30
2023-04-04T15:00:20.927Z,19.80
2023-04-04T15:03:18.928Z,21.55
2023-04-04T15:06:16.900Z,20.67
2023-04-04T15:09:17.098Z,22.00
2023-04-04T15:12:15.151Z,19.90
2023-04-04T15:15:13.826Z,19.58
2023-04-04T15:18:11.705Z,21.63
2023-04-04T15:21:09.510Z,20.95
2023-04-04T15:24:07.653Z,20.05
2023-04-04T15:27:05.513Z,19.83
2023-04-04T15:30:03.298Z,19.85
2023-04-04T15:33:01.108Z,19.20
2023-04-04T15:35:59.088Z,17.50
2023-04-04T15:38:57.101Z,20.05
2023-04-04T15:41:55.412Z,19.42
2023-04-04T15:44:54.059Z,19.65
2023-04-04T15:47:52.660Z,18.63
2023-04-04T15:50:50.878Z,18.83
2023-04-04T15:53:48.688Z,17.70
2023-04-04T15:56:46.766Z,18.05
2023-04-04T15:59:47.320Z,18.23
2023-04-04T16:02:45.514Z,16.90
2023-04-04T16:05:43.355Z,18.02
2023-04-04T16:08:44.438Z,17.60
2023-04-04T16:11:42.571Z,15.25
2023-04-04T16:14:41.507Z,17.50
2023-04-04T16:17:39.289Z,15.68
2023-04-04T16:20:40.458Z,15.25
2023-04-04T16:23:39.588Z,16.90
2023-04-04T16:26:37.506Z,15.73
2023-04-04T16:29:35.371Z,15.27
2023-04-04T16:32:34.920Z,12.52
2023-04-04T16:35:33.142Z,13.23
2023-04-04T16:38:31.126Z,12.52
2023-04-04T16:41:29.326Z,12.35
2023-04-04T16:44:27.792Z,11.85
2023-04-04T16:47:26.800Z,11.18
2023-04-04T16:50:26.444Z,12.95
2023-04-04T16:53:27.116Z,11.70
2023-04-04T16:56:25.794Z,10.85
2023-04-04T16:59:23.592Z,10.68
2023-04-04T17:02:21.701Z,11.15
2023-04-04T17:05:19.568Z,11.05
2023-04-04T17:08:17.389Z,11.60
2023-04-04T17:11:15.551Z,10.02
2023-04-04T17:14:13.608Z,10.52
2023-04-04T17:17:11.943Z,10.80
2023-04-04T17:20:10.075Z,9.90
2023-04-04T17:23:07.794Z,10.00
2023-04-04T17:26:05.855Z,10.38
2023-04-04T17:29:04.058Z,9.32
2023-04-04T17:32:01.844Z,9.80
2023-04-04T17:35:00.757Z,10.20
2023-04-04T17:37:58.663Z,9.77
2023-04-04T17:40:56.667Z,8.80
2023-04-04T17:43:54.587Z,9.32
2023-04-04T17:46:52.561Z,9.27
2023-04-04T17:49:51.857Z,9.35
2023-04-04T17:52:49.602Z,10.48
2023-04-04T17:55:47.509Z,9.18
2023-04-04T17:58:45.374Z,8.45
2023-04-04T18:01:43.426Z,7.55
2023-04-04T18:04:41.690Z,8.32
2023-04-04T18:07:39.633Z,8.18
2023-04-04T18:10:37.582Z,8.35
2023-04-04T18:13:35.586Z,13.65
2023-04-04T18:16:38.902Z,13.52
2023-04-04T18:19:39.140Z,8.80
2023-04-04T18:22:38.321Z,8.07
2023-04-04T18:25:36.397Z,8.13
2023-04-04T18:28:34.333Z,7.70
2023-04-04T18:31:32.513Z,8.13
2023-04-04T18:34:30.972Z,7.05
2023-04-04T18:37:28.872Z,7.55
2023-04-04T18:40:26.689Z,7.45
2023-04-04T18:43:25.636Z,7.63
2023-04-04T18:46:24.000Z,7.47
2023-04-04T18:49:21.756Z,7.57
2023-04-04T18:52:20.157Z,7.55
2023-04-04T18:55:18.858Z,7.47
2023-04-04T18:58:16.744Z,7.32
2023-04-04T19:01:16.690Z,8.35
2023-04-04T19:04:19.615Z,7.72
2023-04-04T19:07:22.470Z,7.68
2023-04-04T19:10:20.701Z,7.03
2023-04-04T19:13:19.952Z,7.55
2023-04-04T19:16:18.914Z,7.25
2023-04-04T19:19:16.754Z,6.97
2023-04-04T19:22:14.815Z,6.78
2023-04-04T19:25:12.694Z,7.25
2023-04-04T19:28:11.110Z,8.25
2023-04-04T19:31:14.988Z,8.50
2023-04-04T19:34:15.603Z,8.40
2023-04-04T19:37:14.521Z,7.10
2023-04-04T19:40:17.035Z,7.00
2023-04-04T19:43:20.797Z,8.00
2023-04-04T19:46:30.547Z,7.03
2023-04-04T19:49:31.014Z,6.93
2023-04-04T19:52:28.884Z,7.22
2023-04-04T19:55:40.150Z,6.22
2023-04-04T19:58:39.428Z,6.97
2023-04-04T20:01:40.560Z,7.90
2023-04-04T20:04:42.883Z,6.43
2023-04-04T20:07:41.056Z,7.22
2023-04-04T20:10:41.843Z,7.00
2023-04-04T20:13:41.397Z,6.90
2023-04-04T20:16:39.293Z,6.15
2023-04-04T20:19:37.461Z,7.65
2023-04-04T20:22:35.622Z,6.53
2023-04-04T20:25:43.255Z,7.00
2023-04-04T20:28:43.573Z,7.00
2023-04-04T20:31:49.711Z,7.20
2023-04-04T20:34:50.712Z,7.45
2023-04-04T20:37:48.523Z,6.45
2023-04-04T20:40:46.624Z,6.43
2023-04-04T20:43:59.852Z,7.07
2023-04-04T20:46:58.527Z,6.63
2023-04-04T20:49:56.317Z,6.78
2023-04-04T20:53:03.607Z,7.63
2023-04-04T20:56:02.950Z,7.05
2023-04-04T20:59:00.953Z,6.45
2023-04-04T21:02:17.209Z,6.93
2023-04-04T21:05:36.747Z,6.78
2023-04-04T21:08:47.652Z,7.65
2023-04-04T21:11:45.628Z,7.18
2023-04-04T21:14:44.948Z,7.15
2023-04-04T21:17:42.787Z,7.20
2023-04-04T21:20:55.587Z,6.13
2023-04-04T21:23:55.028Z,6.72
2023-04-04T21:26:52.869Z,6.28
2023-04-04T21:29:50.775Z,6.35
2023-04-04T21:32:48.521Z,7.55
2023-04-04T21:35:49.166Z,6.70
2023-04-04T21:38:47.153Z,6.85
2023-04-04T21:41:46.579Z,7.28
2023-04-04T21:44:44.313Z,7.00
2023-04-04T21:47:42.161Z,6.85
2023-04-04T21:50:40.110Z,6.55
2023-04-04T21:53:38.100Z,6.35
2023-04-04T21:56:36.117Z,6.65
2023-04-04T21:59:33.891Z,7.35
2023-04-04T22:02:31.884Z,6.50
2023-04-04T22:05:38.411Z,6.25
2023-04-04T22:08:37.240Z,6.72
2023-04-04T22:11:35.160Z,6.85
2023-04-04T22:14:32.996Z,6.88
2023-04-04T22:17:30.720Z,7.00
2023-04-04T22:20:28.524Z,6.68
2023-04-04T22:23:26.362Z,6.32
2023-04-04T22:26:32.803Z,6.70
2023-04-04T22:29:30.524Z,6.40
2023-04-04T22:32:28.884Z,6.47
2023-04-04T22:35:30.489Z,6.53
2023-04-04T22:38:29.016Z,6.70
2023-04-04T22:41:28.612Z,6.60
2023-04-04T22:44:26.774Z,6.20
2023-04-04T22:47:24.648Z,7.20
2023-04-04T22:50:27.182Z,6.55
2023-04-04T22:53:25.574Z,6.10
2023-04-04T22:56:23.350Z,7.35
2023-04-04T22:59:21.618Z,6.75
2023-04-04T23:02:19.379Z,6.97
2023-04-04T23:05:18.373Z,6.57
2023-04-04T23:08:16.254Z,6.90
2023-04-04T23:11:14.164Z,6.22
2023-04-04T23:14:15.310Z,6.82
2023-04-04T23:17:13.246Z,7.63
2023-04-04T23:20:11.078Z,7.45
2023-04-04T23:23:08.918Z,6.63
2023-04-04T23:26:07.072Z,6.72
2023-04-04T23:29:05.164Z,6.25
2023-04-04T23:32:03.199Z,7.47
2023-04-04T23:35:01.148Z,7.38
2023-04-04T23:37:58.867Z,6.40
2023-04-04T23:40:56.706Z,7.82
2023-04-04T23:43:54.571Z,7.18
2023-04-04T23:46:52.789Z,8.10
2023-04-04T23:49:50.730Z,7.65
2023-04-04T23:52:48.429Z,6.88
2023-04-04T23:55:46.522Z,7.43
2023-04-04T23:58:44.294Z,6.05
